Minden, NV

5:31 PM PDT on September 18, 2014 (GMT -0700)
Saratoga Springs | Change Station
CLOSE
Current Station
Personal Weather Station
Location: Minden, NV
Elevation: 4700 ft
Nearby Weather Stations

Elev 4700 ft 39.05 °N, 119.74 °W | Updated 1 second ago

Overcast
Overcast
76.5 °F
Feels Like 78 °F
N
0.0
Wind Variable Wind from WNW
Gusts 2.5 mph

Today
High -- | Low -- °F
--% Chance of Precip.
Yesterday
High -- | Low -- °F
Precip. -- in
6:43 AM 7:02 PM
Waning Crescent, 23% visible
Pressure 29.90 in
Visibility 5.0 miles
Clouds Mostly Cloudy 10000 ft
Heat Index 78 °F
Dew Point 46 °F
Humidity 34%
Rainfall 0.00 in
Snow Depth 0 in , 0 in , 0 in
UV 1 out of 12
Pollen 6.90 out of 12
Air Quality Not available.
Flu Activity Not available.
METAR KCXP 190015Z AUTO 25013G19KT 5SM HZ BKN100 24/05 A2990 RMK AO2

More Conditions Fewer Conditions

Pressure 29.90 in
Visibility 5.0 miles
Clouds Mostly Cloudy 10000 ft
Heat Index 78 °F
Dew Point 46 °F
Humidity 34%
Rainfall 0.00 in
Snow Depth 0 in , 0 in , 0 in
UV 1 out of 12
Pollen 6.90 out of 12
Air Quality Not available.
Flu Activity Not available.
METAR KCXP 190015Z AUTO 25013G19KT 5SM HZ BKN100 24/05 A2990 RMK AO2

More Conditions Fewer Conditions

10-Day Weather Forecast

Almanac

Astronomy

Sep. 18, 2014 Rise Set
Actual Time 6:43 AM PDT 7:02 PM PDT
Civil Twilight 6:16 AM PDT 7:28 PM PDT
Nautical Twilight 5:45 AM PDT 8:00 PM PDT
Astronomical Twilight 5:12 AM PDT 8:32 PM PDT
Moon 1:41 AM PDT (9/18) 3:55 PM PDT (9/18)
Length of Visible Light 13h 12m
Length of Day
12h 19m
Tomorrow will be 2m 32s shorter.
Waning Crescent, 23% of the Moon is Illuminated
Today
Waning Crescent
Sep 24
New
Oct 1
First Quarter
Oct 8
Full
Oct 15
Last Quarter

Today's Extremes

State Highs State Lows

Community

WunderPhotos

Upload Photos

1,754,510 photos uploaded!

WunderBlogs® & News

Nearby

Snow Depth

Station Depth Elevation
Diamond Peak 0 in 8000 ft
Draw Creek 0 in 7200 ft
Pole Creek R.S. 0 in 8330 ft
Taylor Canyon 1 in 6200 ft
Granite Peak 1 in 7800 ft

Earthquake Activity

City Distance Mag. Time & Date
No recent earthquake activity has been reported nearby.
Minimum magnitude displayed is 2.5.

Coastal Water Temperatures

Place Temperature
No Stations Reporting

Nearby Weather Stations